Time;durP1;ratioP1;P1;durP2;ratioP2;P2;SDS_P1;SDS_P2;PMS_P1;PMS_P2;Temp;Humidity;BMP_temperature;BMP_pressure;BME280_temperature;BME280_humidity;BME280_pressure;Samples;Min_cycle;Max_cycle;Signal;HPM_P1;HPM_P2
2023/04/11 07:40:16;;;;;;;1.37;1.27;;;7.50;99.90;;;;;;5138323;27;20281;-79
2023/04/11 07:53:53;;;;;;;2.03;1.23;;;;;;;;;;5132803;27;20799;-78
2023/04/11 08:03:09;;;;;;;3.07;2.10;;;6.70;99.90;;;;;;5114281;27;20314;-78
2023/04/11 08:12:42;;;;;;;2.60;2.40;;;;;;;;;;5133483;27;20286;-78
2023/04/11 08:21:51;;;;;;;1.30;1.20;;;;;;;;;;5135831;27;20739;-78
2023/04/11 08:41:02;;;;;;;3.53;2.30;;;;;;;;;;5075056;28;20530;-78
2023/04/11 08:45:31;;;;;;;6.23;3.53;;;;;;;;;;5133860;27;20633;-78
2023/04/11 08:49:28;;;;;;;4.50;2.90;;;;;;;;;;5092867;27;20276;-77
2023/04/11 08:53:01;;;;;;;3.93;1.60;;;7.10;99.90;;;;;;5154312;27;20293;-77
2023/04/11 08:57:13;;;;;;;3.33;1.97;;;;;;;;;;5072271;28;20916;-78
2023/04/11 09:01:33;;;;;;;1.83;1.33;;;7.10;99.90;;;;;;5133090;27;20273;-78
2023/04/11 09:05:05;;;;;;;2.30;1.30;;;;;;;;;;5133351;27;20267;-77
2023/04/11 09:09:26;;;;;;;2.77;1.70;;;7.10;99.90;;;;;;5133496;27;20291;-78
2023/04/11 09:13:40;;;;;;;1.87;1.40;;;;;;;;;;5137091;27;20618;-78
2023/04/11 09:18:43;;;;;;;1.57;1.47;;;6.90;99.90;;;;;;5134332;27;20265;-78
2023/04/11 09:36:24;;;;;;;1.70;1.60;;;6.80;99.90;;;;;;5133558;27;20275;-78
2023/04/11 09:41:37;;;;;;;1.30;1.20;;;6.90;99.90;;;;;;5132433;27;20272;-78
2023/04/11 09:44:03;;;;;;;1.33;0.93;;;;;;;;;;5125537;28;20203;-78
2023/04/11 09:46:29;;;;;;;1.57;1.27;;;;;;;;;;5132965;28;20183;-78
2023/04/11 09:48:55;;;;;;;1.77;1.17;;;7.20;99.90;;;;;;5133790;28;20177;-78
2023/04/11 09:51:21;;;;;;;2.23;1.63;;;7.30;99.90;;;;;;5133114;27;20175;-78
2023/04/11 09:53:47;;;;;;;1.77;1.67;;;7.30;99.90;;;;;;5134182;27;20550;-78
2023/04/11 09:56:13;;;;;;;2.00;1.90;;;;;;;;;;5132956;28;20274;-78
2023/04/11 09:58:40;;;;;;;1.50;1.40;;;7.60;99.90;;;;;;5133623;28;20635;-78
2023/04/11 10:01:09;;;;;;;1.73;1.30;;;7.20;99.90;;;;;;5132603;28;20234;-78
2023/04/11 10:03:37;;;;;;;3.30;2.07;;;7.30;99.90;;;;;;5133887;28;20202;-77
2023/04/11 10:06:07;;;;;;;7.50;3.63;;;7.30;99.90;;;;;;5147400;27;20220;-77
2023/04/11 10:08:37;;;;;;;11.73;4.70;;;7.50;99.90;;;;;;5131335;28;20246;-77
2023/04/11 10:11:06;;;;;;;8.23;2.83;;;7.20;99.90;;;;;;5130280;28;20177;-77
2023/04/11 10:13:44;;;;;;;3.23;2.03;;;7.50;99.90;;;;;;5130094;28;20685;-77
2023/04/11 10:16:13;;;;;;;13.27;5.57;;;7.70;99.90;;;;;;5131405;27;20218;-77
2023/04/11 10:19:03;;;;;;;11.53;4.60;;;7.80;99.90;;;;;;5130129;28;20185;-77
2023/04/11 10:21:31;;;;;;;10.30;3.07;;;7.80;99.90;;;;;;5125199;27;20266;-78
2023/04/11 10:24:09;;;;;;;5.33;2.20;;;7.90;99.90;;;;;;5132157;27;20201;-78
2023/04/11 10:26:48;;;;;;;3.03;1.43;;;7.70;99.90;;;;;;5131121;28;20185;-77
2023/04/11 10:29:31;;;;;;;4.43;1.70;;;7.70;99.90;;;;;;5132460;27;20263;-78
2023/04/11 10:32:15;;;;;;;4.23;2.70;;;7.90;99.90;;;;;;5131773;27;20179;-77
2023/04/11 10:34:49;;;;;;;4.67;2.27;;;8.00;99.90;;;;;;5132625;27;20665;-78
2023/04/11 10:37:31;;;;;;;3.63;2.00;;;8.10;99.90;;;;;;5130731;28;20192;-77
2023/04/11 10:39:59;;;;;;;4.47;2.13;;;8.10;99.90;;;;;;5131988;28;20209;-78
2023/04/11 10:42:32;;;;;;;21.13;9.20;;;8.40;99.90;;;;;;5132078;28;20181;-78
2023/04/11 10:45:26;;;;;;;45.07;13.60;;;8.40;99.90;;;;;;5134174;27;20177;-78
2023/04/11 10:48:06;;;;;;;19.93;8.00;;;8.00;99.90;;;;;;5131713;27;20171;-78
2023/04/11 10:50:39;;;;;;;21.93;9.00;;;8.30;99.90;;;;;;5131812;27;20171;-78
2023/04/11 10:53:06;;;;;;;28.33;11.90;;;8.10;99.90;;;;;;5118026;28;20200;-78
2023/04/11 10:55:49;;;;;;;35.60;12.70;;;7.80;99.90;;;;;;5117079;28;20324;-78
2023/04/11 10:58:18;;;;;;;38.80;17.30;;;8.00;99.90;;;;;;5119241;28;20665;-78
2023/04/11 11:00:50;;;;;;;2.07;1.40;;;8.20;99.90;;;;;;5117589;28;20531;-78
2023/04/11 11:03:23;;;;;;;4.17;1.70;;;7.90;99.90;;;;;;5118138;28;20556;-78
2023/04/11 11:06:06;;;;;;;3.17;1.50;;;8.30;99.90;;;;;;5116596;28;20168;-78
2023/04/11 11:08:41;;;;;;;4.10;1.27;;;7.80;99.90;;;;;;5116544;28;20163;-78
2023/04/11 11:11:09;;;;;;;3.17;1.20;;;7.80;99.90;;;;;;5117595;28;20190;-78
2023/04/11 11:13:46;;;;;;;4.67;1.20;;;7.80;99.90;;;;;;5117867;28;20236;-78
2023/04/11 11:16:15;;;;;;;4.97;1.60;;;7.70;99.90;;;;;;5118766;28;20624;-78
2023/04/11 11:18:44;;;;;;;4.27;1.80;;;7.80;99.90;;;;;;5118063;28;20201;-78
2023/04/11 11:21:10;;;;;;;2.43;1.80;;;8.00;99.90;;;;;;5119521;28;20191;-78
2023/04/11 11:23:36;;;;;;;3.13;1.80;;;8.00;99.90;;;;;;5128373;27;20212;-79
2023/04/11 11:26:02;;;;;;;10.37;4.73;;;8.10;99.90;;;;;;5139269;27;20621;-78
2023/04/11 11:28:30;;;;;;;3.77;2.20;;;8.40;99.90;;;;;;5119821;27;20191;-77
2023/04/11 11:30:56;;;;;;;2.67;1.40;;;8.60;99.90;;;;;;5138042;27;20215;-78
2023/04/11 11:33:25;;;;;;;2.23;1.47;;;8.40;99.90;;;;;;5137438;27;20221;-78
2023/04/11 11:36:00;;;;;;;3.37;1.53;;;8.80;99.90;;;;;;5141529;27;20176;-77
2023/04/11 11:38:27;;;;;;;2.70;1.60;;;8.50;99.90;;;;;;5143676;27;20178;-77
2023/04/11 11:40:54;;;;;;;4.17;1.50;;;8.80;99.90;;;;;;5145014;27;20233;-77
2023/04/11 11:43:19;;;;;;;1.93;1.57;;;8.90;99.90;;;;;;5136721;27;20195;-78
2023/04/11 11:45:46;;;;;;;2.20;1.60;;;;;;;;;;5137280;27;20167;-78
2023/04/11 11:48:32;;;;;;;3.73;1.70;;;9.00;99.90;;;;;;5135707;27;20174;-78
2023/04/11 11:50:57;;;;;;;3.13;1.40;;;9.00;99.90;;;;;;5137420;27;20194;-78
2023/04/11 11:53:24;;;;;;;4.30;1.90;;;9.30;99.90;;;;;;5138251;27;20205;-78
2023/04/11 11:55:51;;;;;;;1.97;1.40;;;9.10;99.90;;;;;;5136781;27;20174;-77
2023/04/11 11:58:18;;;;;;;2.07;1.40;;;9.30;99.90;;;;;;5137611;27;20178;-77
2023/04/11 12:00:51;;;;;;;6.77;3.77;;;9.40;99.90;;;;;;5137083;27;20264;-77
2023/04/11 12:03:22;;;;;;;3.53;2.27;;;9.20;99.90;;;;;;5135140;27;20619;-78
2023/04/11 12:05:51;;;;;;;4.63;2.47;;;9.20;99.90;;;;;;5137291;27;20151;-78
2023/04/11 12:08:20;;;;;;;1.77;1.33;;;9.40;99.90;;;;;;5136994;27;20167;-78
2023/04/11 12:10:46;;;;;;;1.73;1.23;;;10.30;99.90;;;;;;5136041;27;20650;-79
2023/04/11 12:13:19;;;;;;;3.63;1.10;;;10.80;99.90;;;;;;5136226;27;20603;-78
2023/04/11 12:15:56;;;;;;;2.77;1.10;;;10.60;99.90;;;;;;5136195;27;20583;-77
2023/04/11 12:18:27;;;;;;;2.03;1.20;;;10.10;99.90;;;;;;5137099;27;20178;-77
2023/04/11 12:20:53;;;;;;;1.80;1.40;;;9.70;99.90;;;;;;5136795;27;20663;-78
2023/04/11 12:23:19;;;;;;;2.40;1.00;;;9.20;99.90;;;;;;5136942;27;20195;-78
2023/04/11 12:25:46;;;;;;;2.93;1.27;;;9.00;99.90;;;;;;5137542;27;20231;-79
2023/04/11 12:28:12;;;;;;;2.40;1.13;;;8.70;99.90;;;;;;5138075;27;20198;-78
2023/04/11 12:30:38;;;;;;;3.50;1.63;;;8.60;99.90;;;;;;5137979;27;20266;-78
2023/04/11 12:33:05;;;;;;;4.37;2.27;;;8.60;99.90;;;;;;5120323;27;20207;-79
2023/04/11 12:35:31;;;;;;;3.23;1.53;;;8.60;99.90;;;;;;5137871;27;20167;-78
2023/04/11 12:37:57;;;;;;;3.30;1.53;;;8.60;99.90;;;;;;5137451;27;20178;-78
2023/04/11 12:40:24;;;;;;;3.80;1.10;;;8.60;99.90;;;;;;5135895;27;20602;-78
2023/04/11 12:42:50;;;;;;;2.50;1.50;;;8.80;99.90;;;;;;5136665;27;20201;-78
2023/04/11 12:45:15;;;;;;;4.27;1.33;;;8.80;99.90;;;;;;5136251;27;20179;-78
2023/04/11 12:47:42;;;;;;;1.50;1.20;;;8.80;99.90;;;;;;5136134;27;20184;-78
2023/04/11 12:50:09;;;;;;;6.20;2.47;;;8.80;99.90;;;;;;5137713;27;20171;-78
2023/04/11 12:52:35;;;;;;;2.60;1.00;;;8.70;99.90;;;;;;5136122;27;20182;-78
2023/04/11 12:55:02;;;;;;;3.53;1.10;;;8.70;99.90;;;;;;5138101;27;20178;-78
2023/04/11 12:57:27;;;;;;;2.87;1.33;;;8.70;99.90;;;;;;5141985;27;20175;-78
2023/04/11 12:59:53;;;;;;;1.50;1.23;;;8.70;99.90;;;;;;5153874;27;20201;-78
2023/04/11 13:02:19;;;;;;;2.90;1.80;;;8.80;99.90;;;;;;5146545;27;20179;-78
2023/04/11 13:04:52;;;;;;;4.83;1.40;;;8.80;99.90;;;;;;5138916;27;20565;-81
2023/04/11 13:07:18;;;;;;;2.70;1.90;;;9.00;99.90;;;;;;5137431;27;20684;-78
2023/04/11 13:09:44;;;;;;;2.10;1.50;;;9.20;99.90;;;;;;5136627;27;20213;-79
2023/04/11 13:12:10;;;;;;;2.57;1.40;;;9.40;99.90;;;;;;5136456;27;20175;-79
2023/04/11 13:14:36;;;;;;;3.87;2.17;;;9.30;99.90;;;;;;5137653;27;20201;-79
2023/04/11 13:17:02;;;;;;;4.10;1.30;;;9.20;99.90;;;;;;5138525;27;20529;-79
2023/04/11 13:19:28;;;;;;;2.73;1.60;;;9.20;99.90;;;;;;5137577;27;20247;-78
2023/04/11 13:21:54;;;;;;;2.50;1.87;;;9.60;99.90;;;;;;5136828;27;20170;-78
2023/04/11 13:24:20;;;;;;;2.40;1.73;;;9.90;99.90;;;;;;5138414;27;20197;-78
2023/04/11 13:26:45;;;;;;;3.83;1.07;;;10.10;99.90;;;;;;5138382;27;20172;-78
2023/04/11 13:29:11;;;;;;;2.30;1.03;;;10.00;99.90;;;;;;5138397;27;20178;-78
2023/04/11 13:31:37;;;;;;;3.33;1.50;;;9.80;99.90;;;;;;5138623;27;20685;-78
2023/04/11 13:34:02;;;;;;;1.43;1.10;;;9.40;99.90;;;;;;5137394;27;20560;-78
2023/04/11 13:36:28;;;;;;;2.27;1.77;;;9.30;99.90;;;;;;5138052;27;20179;-78
2023/04/11 13:38:55;;;;;;;4.00;2.17;;;9.10;99.90;;;;;;5137695;28;20274;-79
2023/04/11 13:41:24;;;;;;;4.20;2.47;;;9.20;99.90;;;;;;5137603;28;20206;-78
2023/04/11 13:43:51;;;;;;;1.93;1.10;;;9.40;99.90;;;;;;5136256;28;20249;-78
2023/04/11 13:46:16;;;;;;;3.67;1.57;;;9.40;99.90;;;;;;5137161;28;20624;-79
2023/04/11 13:48:43;;;;;;;2.87;1.00;;;9.40;99.90;;;;;;5136109;28;20186;-79
2023/04/11 13:51:10;;;;;;;4.80;1.80;;;9.30;99.90;;;;;;5136125;28;20202;-78
2023/04/11 13:53:35;;;;;;;1.93;1.07;;;9.20;99.90;;;;;;5136857;28;20282;-78
2023/04/11 13:56:04;;;;;;;3.00;1.33;;;9.00;99.90;;;;;;5136587;28;20202;-78
2023/04/11 13:58:30;;;;;;;1.30;1.00;;;8.80;99.90;;;;;;5134912;28;20184;-78
2023/04/11 14:00:56;;;;;;;1.30;1.20;;;8.70;99.90;;;;;;5134649;28;20219;-78
2023/04/11 14:03:28;;;;;;;1.40;1.13;;;8.50;99.90;;;;;;5135401;28;20186;-79
2023/04/11 14:05:53;;;;;;;3.63;1.50;;;8.50;99.90;;;;;;5135006;28;20156;-79
2023/04/11 14:08:19;;;;;;;1.97;1.30;;;8.50;99.90;;;;;;5136324;28;20592;-79
2023/04/11 14:10:45;;;;;;;7.33;2.00;;;8.60;99.90;;;;;;5138508;28;20220;-79
2023/04/11 14:13:11;;;;;;;4.40;1.87;;;8.50;99.90;;;;;;5138309;28;20243;-79
2023/04/11 14:15:36;;;;;;;5.43;1.73;;;8.50;99.90;;;;;;5137163;28;20178;-79
2023/04/11 14:18:02;;;;;;;3.67;1.60;;;8.40;99.90;;;;;;5138880;28;20224;-79
2023/04/11 14:20:28;;;;;;;2.20;1.27;;;8.50;99.90;;;;;;5138853;28;20247;-79
2023/04/11 14:22:55;;;;;;;3.17;1.23;;;8.30;99.90;;;;;;5137767;28;20198;-79
2023/04/11 14:25:21;;;;;;;4.30;1.20;;;8.10;99.90;;;;;;5137943;28;20178;-79
2023/04/11 14:27:47;;;;;;;3.43;1.50;;;8.00;99.90;;;;;;5147385;27;20178;-77
2023/04/11 14:30:13;;;;;;;3.20;1.40;;;7.80;99.90;;;;;;5156459;27;20178;-78
2023/04/11 14:32:39;;;;;;;1.93;1.30;;;7.60;99.90;;;;;;5148093;27;20569;-79
2023/04/11 14:35:07;;;;;;;1.73;1.13;;;7.60;99.90;;;;;;5142777;27;20178;-79
2023/04/11 14:37:33;;;;;;;2.73;1.47;;;7.60;99.90;;;;;;5142873;27;20171;-78
2023/04/11 14:39:59;;;;;;;1.97;1.20;;;7.60;99.90;;;;;;5142994;27;20211;-79
2023/04/11 14:42:25;;;;;;;1.40;1.30;;;7.50;99.90;;;;;;5142167;27;20174;-79
2023/04/11 14:44:52;;;;;;;1.63;1.10;;;;;;;;;;5141974;27;20228;-80
2023/04/11 14:47:18;;;;;;;2.83;1.90;;;7.40;99.90;;;;;;5141897;27;20815;-80
2023/04/11 14:49:43;;;;;;;2.60;1.70;;;7.50;99.90;;;;;;5141454;27;20199;-79
2023/04/11 14:52:09;;;;;;;3.13;1.60;;;7.60;99.90;;;;;;5142777;27;20172;-80
2023/04/11 14:55:32;;;;;;;2.70;1.70;;;7.70;99.90;;;;;;5138358;27;20277;-79
2023/04/11 14:57:58;;;;;;;3.17;1.63;;;7.80;99.90;;;;;;5138942;28;20589;-79
2023/04/11 15:00:23;;;;;;;2.20;1.60;;;7.70;99.90;;;;;;5119796;28;20175;-80
2023/04/11 15:02:54;;;;;;;4.43;1.70;;;8.00;99.90;;;;;;5138056;28;20187;-79
2023/04/11 15:05:21;;;;;;;2.67;1.93;;;8.00;99.90;;;;;;5135172;28;20247;-78
2023/04/11 15:07:48;;;;;;;2.63;1.47;;;8.10;99.90;;;;;;5136201;28;20181;-78
2023/04/11 15:10:16;;;;;;;4.37;1.50;;;8.10;99.90;;;;;;5136984;28;20234;-78
2023/04/11 15:12:42;;;;;;;4.53;1.50;;;8.10;99.90;;;;;;5137873;27;20534;-78
2023/04/11 15:15:09;;;;;;;4.03;1.53;;;8.10;99.90;;;;;;5137770;27;20200;-79
2023/04/11 15:17:46;;;;;;;2.67;1.30;;;8.20;99.90;;;;;;5135576;28;20538;-79
2023/04/11 15:20:13;;;;;;;3.20;1.27;;;8.30;99.90;;;;;;5134382;28;20179;-79
2023/04/11 15:22:41;;;;;;;3.00;1.57;;;9.00;99.90;;;;;;5135616;27;20636;-79
2023/04/11 15:25:09;;;;;;;1.20;1.03;;;9.00;99.90;;;;;;5134160;28;20175;-78
2023/04/11 15:27:35;;;;;;;2.60;1.27;;;9.40;99.90;;;;;;5134125;28;20190;-80
2023/04/11 15:30:02;;;;;;;3.83;2.20;;;9.50;99.90;;;;;;5135692;28;20231;-79
2023/04/11 15:32:28;;;;;;;5.70;2.00;;;9.60;99.90;;;;;;5135266;28;20215;-79
2023/04/11 15:34:55;;;;;;;3.07;1.30;;;9.60;99.90;;;;;;5134063;28;20265;-79
2023/04/11 15:37:21;;;;;;;2.37;1.50;;;9.60;99.90;;;;;;5134762;28;20186;-79
2023/04/11 15:39:48;;;;;;;5.67;1.70;;;9.70;99.90;;;;;;5135441;28;20163;-79
2023/04/11 15:42:15;;;;;;;3.10;1.60;;;9.60;99.90;;;;;;5135988;28;20224;-79
2023/04/11 15:44:41;;;;;;;5.00;2.03;;;9.40;99.90;;;;;;5136157;28;20202;-79
2023/04/11 15:47:07;;;;;;;2.93;1.30;;;9.40;99.90;;;;;;5133616;28;20175;-78
2023/04/11 15:49:33;;;;;;;4.03;1.23;;;9.40;99.90;;;;;;5133364;28;20237;-79
2023/04/11 15:51:59;;;;;;;4.33;2.70;;;9.30;99.90;;;;;;5134309;28;20194;-79
2023/04/11 15:54:25;;;;;;;2.20;1.40;;;9.20;99.90;;;;;;5134858;28;20226;-80
2023/04/11 15:56:51;;;;;;;4.60;1.47;;;;;;;;;;5135850;28;20171;-79
2023/04/11 15:59:17;;;;;;;3.90;1.67;;;9.00;99.90;;;;;;5134235;28;20162;-78
2023/04/11 16:01:43;;;;;;;5.60;2.10;;;;;;;;;;5133433;28;20663;-79
2023/04/11 16:04:10;;;;;;;3.87;1.40;;;9.10;99.90;;;;;;5133819;28;20210;-79
2023/04/11 16:06:36;;;;;;;4.50;1.40;;;8.90;99.90;;;;;;5122397;28;20178;-79
2023/04/11 16:09:01;;;;;;;4.60;1.23;;;8.80;99.90;;;;;;5117359;28;20702;-77
2023/04/11 16:11:27;;;;;;;4.37;1.73;;;8.90;99.90;;;;;;5117500;28;20175;-78
2023/04/11 16:13:56;;;;;;;3.77;1.50;;;;;;;;;;5131253;28;20233;-77
2023/04/11 16:16:22;;;;;;;5.73;1.40;;;8.70;99.90;;;;;;5126113;28;20228;-78
2023/04/11 16:18:47;;;;;;;3.37;1.50;;;8.60;99.90;;;;;;5118411;28;20167;-77
2023/04/11 16:21:14;;;;;;;2.37;1.30;;;8.60;99.90;;;;;;5119070;28;20677;-81
2023/04/11 16:23:43;;;;;;;4.47;3.20;;;8.70;99.90;;;;;;5116976;28;20201;-78
2023/04/11 16:26:09;;;;;;;4.07;2.07;;;8.70;99.90;;;;;;5116290;28;20542;-78
2023/04/11 16:28:35;;;;;;;2.90;1.50;;;8.80;99.90;;;;;;5118110;28;20577;-78
2023/04/11 16:31:01;;;;;;;1.53;1.10;;;8.80;99.90;;;;;;5117475;28;20643;-77
2023/04/11 16:33:26;;;;;;;4.70;1.47;;;8.80;99.90;;;;;;5117839;28;20198;-78
2023/04/11 16:35:52;;;;;;;5.10;1.50;;;8.80;99.90;;;;;;5117437;28;20163;-78
2023/04/11 16:38:18;;;;;;;3.00;1.30;;;;;;;;;;5117180;28;20175;-79
2023/04/11 16:40:43;;;;;;;3.33;1.60;;;8.80;99.90;;;;;;5117502;28;20674;-78
2023/04/11 16:43:09;;;;;;;4.87;1.30;;;8.70;99.90;;;;;;5116596;28;20198;-77
2023/04/11 16:45:35;;;;;;;4.33;2.40;;;8.60;99.90;;;;;;5115951;28;20181;-78
2023/04/11 16:56:37;;;;;;;5.70;1.90;;;8.30;99.90;;;;;;5076487;28;20586;-79
2023/04/11 17:06:32;;;;;;;4.83;1.67;;;8.20;99.90;;;;;;5136781;27;20753;-79
